GMT,Max TemperatureF,Mean TemperatureF,Min TemperatureF,Max Dew PointF,MeanDew PointF,Min DewpointF,Max Humidity, Mean Humidity, Min Humidity, Max Sea Level PressureIn, Mean Sea Level PressureIn, Min Sea Level PressureIn, Max VisibilityMiles, Mean VisibilityMiles, Min VisibilityMiles, Max Wind SpeedMPH, Mean Wind SpeedMPH, Max Gust SpeedMPH,PrecipitationIn, CloudCover, Events, WindDirDegrees
2012-10-1,63,58,51,59,54,50,100,87,69,29.98,29.88,29.83,19,7,1,16,12,23,0.12,5,Rain,223
2012-10-2,64,58,51,54,51,48,94,84,56,29.90,29.82,29.68,19,8,6,21,11,33,0.03,2,Rain,215
2012-10-3,59,54,50,54,47,43,94,78,49,29.74,29.69,29.65,19,8,5,18,12,22,0.16,1,Rain,234
2012-10-4,61,52,43,48,45,43,100,76,50,29.84,29.77,29.65,19,9,6,18,8,,0.08,2,Rain,244
2012-10-5,60,54,48,59,50,46,100,85,55,29.86,29.73,29.50,19,5,2,23,10,,0.16,4,Rain,255
2012-10-6,59,52,45,46,44,43,100,77,44,30.04,29.91,29.77,19,6,2,8,5,,0.01,3,Rain,13
2012-10-7,56,48,40,48,44,37,100,86,61,30.21,30.15,30.04,11,5,1,7,3,,0.00,4,Fog,345
2012-10-8,54,50,47,54,50,46,100,92,79,30.15,29.96,29.86,12,5,2,9,6,,0.12,6,Rain,74
2012-10-9,57,52,47,52,47,44,94,80,57,30.04,30.01,29.92,19,6,2,10,6,,0.00,5,,66
2012-10-10,59,52,46,45,43,41,82,69,47,30.02,29.97,29.89,19,7,6,10,6,,0.00,5,,98
2012-10-11,60,54,48,59,51,42,100,89,69,29.86,29.64,29.47,12,5,1,15,8,,0.24,6,Rain,110
2012-10-12,58,52,46,54,44,37,94,73,42,29.81,29.69,29.50,19,7,5,20,15,,0.00,4,Rain,255
2012-10-13,56,49,41,46,43,39,93,84,62,29.77,29.67,29.62,19,7,6,14,6,,0.03,2,Rain,253
2012-10-14,55,45,35,43,38,36,100,76,39,29.65,29.60,29.56,13,6,0,9,5,,0.00,2,Fog,307
2012-10-15,57,47,37,50,43,36,100,83,58,29.65,29.60,29.47,19,7,6,20,7,,0.01,2,Rain,222
2012-10-16,60,53,44,52,44,39,94,71,39,29.67,29.55,29.36,18,8,3,25,15,32,0.00,2,Rain,224
2012-10-17,63,54,46,54,50,45,94,79,51,29.59,29.46,29.33,19,7,3,20,12,30,0.03,2,Rain-Thunderstorm,173
2012-10-18,62,58,53,54,52,48,94,82,56,29.71,29.59,29.47,19,8,6,17,11,28,0.00,2,Rain,183
2012-10-19,56,54,51,54,52,50,100,94,87,29.83,29.75,29.71,17,6,2,10,4,,0.28,5,Rain,77
2012-10-20,57,52,46,52,49,46,100,90,62,30.09,30.01,29.83,19,5,0,10,5,,0.20,4,Fog-Rain,222
2012-10-21,54,52,49,52,50,48,100,92,81,30.09,30.06,30.04,17,6,2,12,6,,0.02,5,Rain,46
2012-10-22,59,56,52,58,56,52,100,96,93,30.21,30.12,30.04,12,2,0,7,6,,0.00,6,Fog-Rain,56
2012-10-23,57,55,53,57,54,53,100,96,88,30.27,30.23,30.21,3,2,1,7,5,,0.01,6,Rain,29
2012-10-24,62,58,55,56,54,52,100,90,69,30.21,30.10,30.04,3,2,1,13,7,,0.00,6,,56
2012-10-25,56,53,50,55,51,43,100,89,72,30.06,30.02,29.98,19,5,1,15,11,,0.00,6,Rain,64
2012-10-26,50,44,39,43,39,32,87,75,61,29.98,29.91,29.86,19,7,6,15,11,26,0.02,4,Rain,38
2012-10-27,48,42,35,37,33,30,87,73,52,30.16,30.02,29.89,19,8,6,16,11,31,0.01,2,Rain,353
2012-10-28,49,40,32,45,39,31,93,87,74,30.15,29.99,29.86,19,8,6,13,7,,0.12,3,Rain,236
2012-10-29,55,50,44,48,46,43,100,86,66,29.86,29.78,29.74,19,7,4,17,8,,0.02,3,Rain,248
2012-10-30,52,46,41,45,41,37,100,82,58,29.74,29.65,29.50,19,7,4,12,7,,0.00,3,,263
2012-10-31,55,48,42,48,43,37,93,79,63,29.47,29.20,28.88,19,8,6,20,11,30,0.01,3,Rain,190